sensor_id;sensor_type;location;lat;lon;timestamp;temperature;humidity
9939;DHT22;5008;50.656;7.188;2022-11-20T03:13:12;5.10;99.90
9939;DHT22;5008;50.656;7.188;2022-11-20T03:15:41;5.10;99.90
9939;DHT22;5008;50.656;7.188;2022-11-20T03:18:08;5.00;99.90
9939;DHT22;5008;50.656;7.188;2022-11-20T03:20:34;5.00;99.90
9939;DHT22;5008;50.656;7.188;2022-11-20T03:23:02;5.00;99.90
9939;DHT22;5008;50.656;7.188;2022-11-20T03:25:29;4.90;99.90
9939;DHT22;5008;50.656;7.188;2022-11-20T03:27:55;4.90;99.90
9939;DHT22;5008;50.656;7.188;2022-11-20T03:30:24;4.90;99.90
9939;DHT22;5008;50.656;7.188;2022-11-20T03:32:53;4.90;99.90
9939;DHT22;5008;50.656;7.188;2022-11-20T03:35:20;4.90;99.90
9939;DHT22;5008;50.656;7.188;2022-11-20T03:37:47;5.00;99.90
9939;DHT22;5008;50.656;7.188;2022-11-20T03:40:14;5.10;99.90
9939;DHT22;5008;50.656;7.188;2022-11-20T03:42:41;5.10;99.90
9939;DHT22;5008;50.656;7.188;2022-11-20T03:45:14;5.10;99.90
9939;DHT22;5008;50.656;7.188;2022-11-20T03:47:44;5.10;99.90
9939;DHT22;5008;50.656;7.188;2022-11-20T03:50:13;5.10;99.90
9939;DHT22;5008;50.656;7.188;2022-11-20T03:52:45;5.10;99.90
9939;DHT22;5008;50.656;7.188;2022-11-20T03:55:12;5.10;99.90
9939;DHT22;5008;50.656;7.188;2022-11-20T03:57:39;5.00;99.90
9939;DHT22;5008;50.656;7.188;2022-11-20T04:00:07;5.10;99.90
9939;DHT22;5008;50.656;7.188;2022-11-20T04:02:34;5.00;99.90
9939;DHT22;5008;50.656;7.188;2022-11-20T04:05:03;5.10;99.90
9939;DHT22;5008;50.656;7.188;2022-11-20T04:07:30;5.10;99.90
9939;DHT22;5008;50.656;7.188;2022-11-20T04:10:00;5.10;99.90
9939;DHT22;5008;50.656;7.188;2022-11-20T04:12:27;5.10;99.90
9939;DHT22;5008;50.656;7.188;2022-11-20T04:15:05;5.10;99.90
9939;DHT22;5008;50.656;7.188;2022-11-20T04:17:32;5.10;99.90
9939;DHT22;5008;50.656;7.188;2022-11-20T04:19:58;5.10;99.90
9939;DHT22;5008;50.656;7.188;2022-11-20T04:22:27;5.10;99.90
9939;DHT22;5008;50.656;7.188;2022-11-20T04:24:54;5.10;99.90
9939;DHT22;5008;50.656;7.188;2022-11-20T04:27:21;5.10;99.90
9939;DHT22;5008;50.656;7.188;2022-11-20T04:29:48;5.10;99.90
9939;DHT22;5008;50.656;7.188;2022-11-20T04:32:15;5.10;99.90
9939;DHT22;5008;50.656;7.188;2022-11-20T04:34:42;5.10;99.90
9939;DHT22;5008;50.656;7.188;2022-11-20T04:37:09;5.10;99.90
9939;DHT22;5008;50.656;7.188;2022-11-20T04:39:37;5.20;99.90
9939;DHT22;5008;50.656;7.188;2022-11-20T04:42:14;5.20;99.90
9939;DHT22;5008;50.656;7.188;2022-11-20T04:44:56;5.10;99.90
9939;DHT22;5008;50.656;7.188;2022-11-20T04:47:23;5.20;99.90
9939;DHT22;5008;50.656;7.188;2022-11-20T04:49:50;5.10;99.90
9939;DHT22;5008;50.656;7.188;2022-11-20T04:52:17;5.10;99.90
9939;DHT22;5008;50.656;7.188;2022-11-20T04:54:45;5.00;99.90
9939;DHT22;5008;50.656;7.188;2022-11-20T04:57:20;5.00;99.90
9939;DHT22;5008;50.656;7.188;2022-11-20T04:59:47;5.10;99.90
9939;DHT22;5008;50.656;7.188;2022-11-20T05:02:14;5.00;99.90
9939;DHT22;5008;50.656;7.188;2022-11-20T05:04:43;5.00;99.90
9939;DHT22;5008;50.656;7.188;2022-11-20T05:07:16;5.10;99.90
9939;DHT22;5008;50.656;7.188;2022-11-20T05:09:44;5.10;99.90
9939;DHT22;5008;50.656;7.188;2022-11-20T05:12:11;5.00;99.90
9939;DHT22;5008;50.656;7.188;2022-11-20T05:14:38;5.10;99.90
9939;DHT22;5008;50.656;7.188;2022-11-20T05:17:05;5.20;99.90
9939;DHT22;5008;50.656;7.188;2022-11-20T05:19:32;5.20;99.90
9939;DHT22;5008;50.656;7.188;2022-11-20T05:21:59;5.20;99.90
9939;DHT22;5008;50.656;7.188;2022-11-20T05:24:28;5.00;99.90
9939;DHT22;5008;50.656;7.188;2022-11-20T05:26:59;5.10;99.90
9939;DHT22;5008;50.656;7.188;2022-11-20T05:29:26;5.10;99.90
9939;DHT22;5008;50.656;7.188;2022-11-20T05:31:53;5.10;99.90
9939;DHT22;5008;50.656;7.188;2022-11-20T05:34:23;5.20;99.90
9939;DHT22;5008;50.656;7.188;2022-11-20T05:36:51;5.20;99.90
9939;DHT22;5008;50.656;7.188;2022-11-20T05:39:18;5.10;99.90
9939;DHT22;5008;50.656;7.188;2022-11-20T05:41:45;5.00;99.90
9939;DHT22;5008;50.656;7.188;2022-11-20T05:44:36;5.10;99.90
9939;DHT22;5008;50.656;7.188;2022-11-20T05:47:03;5.20;99.90
9939;DHT22;5008;50.656;7.188;2022-11-20T05:49:30;5.20;99.90
9939;DHT22;5008;50.656;7.188;2022-11-20T05:52:00;5.30;99.90
9939;DHT22;5008;50.656;7.188;2022-11-20T05:54:27;5.20;99.90
9939;DHT22;5008;50.656;7.188;2022-11-20T05:56:58;5.20;99.90
9939;DHT22;5008;50.656;7.188;2022-11-20T05:59:25;5.20;99.90
9939;DHT22;5008;50.656;7.188;2022-11-20T06:01:54;5.10;99.90
9939;DHT22;5008;50.656;7.188;2022-11-20T06:04:21;5.10;99.90
9939;DHT22;5008;50.656;7.188;2022-11-20T06:06:48;5.10;99.90
9939;DHT22;5008;50.656;7.188;2022-11-20T06:09:14;5.10;99.90
9939;DHT22;5008;50.656;7.188;2022-11-20T06:11:41;5.10;99.90
9939;DHT22;5008;50.656;7.188;2022-11-20T06:14:08;5.10;99.90
9939;DHT22;5008;50.656;7.188;2022-11-20T06:16:35;5.20;99.90
9939;DHT22;5008;50.656;7.188;2022-11-20T06:19:26;5.20;99.90
9939;DHT22;5008;50.656;7.188;2022-11-20T06:21:53;5.10;99.90
9939;DHT22;5008;50.656;7.188;2022-11-20T06:24:20;5.20;99.90
9939;DHT22;5008;50.656;7.188;2022-11-20T06:26:47;5.20;99.90
9939;DHT22;5008;50.656;7.188;2022-11-20T06:29:14;5.20;99.90
9939;DHT22;5008;50.656;7.188;2022-11-20T06:31:41;5.30;99.90
9939;DHT22;5008;50.656;7.188;2022-11-20T06:34:08;5.20;99.90
9939;DHT22;5008;50.656;7.188;2022-11-20T06:36:36;5.20;99.90
9939;DHT22;5008;50.656;7.188;2022-11-20T06:39:03;5.10;99.90
9939;DHT22;5008;50.656;7.188;2022-11-20T06:41:30;5.10;99.90
9939;DHT22;5008;50.656;7.188;2022-11-20T06:43:57;5.20;99.90
9939;DHT22;5008;50.656;7.188;2022-11-20T06:46:23;5.20;99.90
9939;DHT22;5008;50.656;7.188;2022-11-20T06:48:50;5.30;99.90
9939;DHT22;5008;50.656;7.188;2022-11-20T06:51:17;5.30;99.90
9939;DHT22;5008;50.656;7.188;2022-11-20T06:53:46;5.20;99.90
9939;DHT22;5008;50.656;7.188;2022-11-20T06:56:12;5.10;99.90
9939;DHT22;5008;50.656;7.188;2022-11-20T06:58:39;5.20;99.90
9939;DHT22;5008;50.656;7.188;2022-11-20T07:01:07;5.10;99.90
9939;DHT22;5008;50.656;7.188;2022-11-20T07:03:35;5.10;99.90
9939;DHT22;5008;50.656;7.188;2022-11-20T07:06:03;5.20;99.90
9939;DHT22;5008;50.656;7.188;2022-11-20T07:08:56;5.20;99.90
9939;DHT22;5008;50.656;7.188;2022-11-20T07:11:24;5.20;99.90
9939;DHT22;5008;50.656;7.188;2022-11-20T07:13:51;5.20;99.90
9939;DHT22;5008;50.656;7.188;2022-11-20T07:16:18;5.30;99.90
9939;DHT22;5008;50.656;7.188;2022-11-20T07:18:53;5.20;99.90
9939;DHT22;5008;50.656;7.188;2022-11-20T07:21:21;5.20;99.90
9939;DHT22;5008;50.656;7.188;2022-11-20T07:23:48;5.30;99.90
9939;DHT22;5008;50.656;7.188;2022-11-20T07:26:19;5.20;99.90
9939;DHT22;5008;50.656;7.188;2022-11-20T07:28:46;5.20;99.90
9939;DHT22;5008;50.656;7.188;2022-11-20T07:31:13;5.30;99.90
9939;DHT22;5008;50.656;7.188;2022-11-20T07:33:43;5.30;99.90
9939;DHT22;5008;50.656;7.188;2022-11-20T07:36:10;5.20;99.90
9939;DHT22;5008;50.656;7.188;2022-11-20T07:38:37;5.30;99.90
9939;DHT22;5008;50.656;7.188;2022-11-20T07:41:04;5.20;99.90
9939;DHT22;5008;50.656;7.188;2022-11-20T07:43:33;5.30;99.90
9939;DHT22;5008;50.656;7.188;2022-11-20T07:45:59;5.30;99.90
9939;DHT22;5008;50.656;7.188;2022-11-20T07:48:29;5.40;99.90
9939;DHT22;5008;50.656;7.188;2022-11-20T07:51:03;5.40;99.90
9939;DHT22;5008;50.656;7.188;2022-11-20T07:53:30;5.40;99.90
9939;DHT22;5008;50.656;7.188;2022-11-20T07:56:02;5.50;99.90
9939;DHT22;5008;50.656;7.188;2022-11-20T07:58:35;5.50;99.90
9939;DHT22;5008;50.656;7.188;2022-11-20T08:01:05;5.50;99.90
9939;DHT22;5008;50.656;7.188;2022-11-20T08:03:35;5.40;99.90
9939;DHT22;5008;50.656;7.188;2022-11-20T08:06:07;5.50;99.90
9939;DHT22;5008;50.656;7.188;2022-11-20T08:08:34;5.50;99.90
9939;DHT22;5008;50.656;7.188;2022-11-20T08:11:00;5.50;99.90
9939;DHT22;5008;50.656;7.188;2022-11-20T08:13:43;5.50;99.90
9939;DHT22;5008;50.656;7.188;2022-11-20T08:16:27;5.60;99.90
9939;DHT22;5008;50.656;7.188;2022-11-20T08:18:54;5.60;99.90
9939;DHT22;5008;50.656;7.188;2022-11-20T08:21:24;5.70;99.90
9939;DHT22;5008;50.656;7.188;2022-11-20T08:23:51;5.70;99.90
9939;DHT22;5008;50.656;7.188;2022-11-20T08:26:18;5.70;99.90
9939;DHT22;5008;50.656;7.188;2022-11-20T08:28:46;5.70;99.90
9939;DHT22;5008;50.656;7.188;2022-11-20T08:31:13;5.70;99.90
9939;DHT22;5008;50.656;7.188;2022-11-20T08:33:40;5.80;99.90
9939;DHT22;5008;50.656;7.188;2022-11-20T08:36:08;5.80;99.90
9939;DHT22;5008;50.656;7.188;2022-11-20T08:38:35;5.90;99.90
9939;DHT22;5008;50.656;7.188;2022-11-20T08:41:04;5.70;99.90
9939;DHT22;5008;50.656;7.188;2022-11-20T08:44:07;5.80;99.90
9939;DHT22;5008;50.656;7.188;2022-11-20T08:46:35;5.90;99.90
9939;DHT22;5008;50.656;7.188;2022-11-20T08:49:03;6.00;99.90
9939;DHT22;5008;50.656;7.188;2022-11-20T08:52:01;5.90;99.90
9939;DHT22;5008;50.656;7.188;2022-11-20T08:54:28;5.80;99.90
9939;DHT22;5008;50.656;7.188;2022-11-20T08:56:55;5.90;99.90
9939;DHT22;5008;50.656;7.188;2022-11-20T08:59:23;5.90;99.90
9939;DHT22;5008;50.656;7.188;2022-11-20T09:01:50;6.10;99.90
9939;DHT22;5008;50.656;7.188;2022-11-20T09:04:17;6.10;99.90
9939;DHT22;5008;50.656;7.188;2022-11-20T09:06:43;6.10;99.90
9939;DHT22;5008;50.656;7.188;2022-11-20T09:09:10;6.00;99.90
9939;DHT22;5008;50.656;7.188;2022-11-20T09:11:37;6.20;99.90
9939;DHT22;5008;50.656;7.188;2022-11-20T09:14:04;6.20;99.90
9939;DHT22;5008;50.656;7.188;2022-11-20T09:16:32;6.20;99.90
9939;DHT22;5008;50.656;7.188;2022-11-20T09:18:59;6.20;99.90
9939;DHT22;5008;50.656;7.188;2022-11-20T09:21:34;6.30;99.90
9939;DHT22;5008;50.656;7.188;2022-11-20T09:24:00;6.20;99.90
9939;DHT22;5008;50.656;7.188;2022-11-20T09:26:28;6.30;99.90
9939;DHT22;5008;50.656;7.188;2022-11-20T09:28:55;6.30;99.90
9939;DHT22;5008;50.656;7.188;2022-11-20T09:31:23;6.20;99.90
9939;DHT22;5008;50.656;7.188;2022-11-20T09:33:52;6.20;99.90
9939;DHT22;5008;50.656;7.188;2022-11-20T09:36:19;6.20;99.90
9939;DHT22;5008;50.656;7.188;2022-11-20T09:38:46;6.20;99.90
9939;DHT22;5008;50.656;7.188;2022-11-20T09:41:36;6.20;99.90
9939;DHT22;5008;50.656;7.188;2022-11-20T09:44:16;6.20;99.90
9939;DHT22;5008;50.656;7.188;2022-11-20T09:46:49;6.30;99.90
9939;DHT22;5008;50.656;7.188;2022-11-20T09:49:25;6.40;99.90
9939;DHT22;5008;50.656;7.188;2022-11-20T09:51:58;6.50;99.90
9939;DHT22;5008;50.656;7.188;2022-11-20T09:54:29;6.60;99.90
9939;DHT22;5008;50.656;7.188;2022-11-20T09:57:01;6.80;99.90
9939;DHT22;5008;50.656;7.188;2022-11-20T09:59:38;6.80;99.90
9939;DHT22;5008;50.656;7.188;2022-11-20T10:02:16;6.90;99.90
9939;DHT22;5008;50.656;7.188;2022-11-20T10:04:49;6.90;99.90
9939;DHT22;5008;50.656;7.188;2022-11-20T10:07:21;7.00;99.90
9939;DHT22;5008;50.656;7.188;2022-11-20T10:09:52;7.10;99.90
9939;DHT22;5008;50.656;7.188;2022-11-20T10:12:25;7.20;99.90
9939;DHT22;5008;50.656;7.188;2022-11-20T10:15:05;7.20;99.90
9939;DHT22;5008;50.656;7.188;2022-11-20T10:17:55;7.20;99.90
9939;DHT22;5008;50.656;7.188;2022-11-20T10:20:41;7.20;99.90
9939;DHT22;5008;50.656;7.188;2022-11-20T10:23:23;7.30;99.90
9939;DHT22;5008;50.656;7.188;2022-11-20T10:25:55;7.30;99.90
9939;DHT22;5008;50.656;7.188;2022-11-20T10:28:34;7.40;99.90
9939;DHT22;5008;50.656;7.188;2022-11-20T10:31:11;7.40;99.90
9939;DHT22;5008;50.656;7.188;2022-11-20T10:33:42;7.30;99.90
9939;DHT22;5008;50.656;7.188;2022-11-20T10:36:16;7.40;99.90
9939;DHT22;5008;50.656;7.188;2022-11-20T10:38:47;7.30;99.90
9939;DHT22;5008;50.656;7.188;2022-11-20T10:41:21;7.20;99.90
9939;DHT22;5008;50.656;7.188;2022-11-20T10:43:56;7.10;99.90
9939;DHT22;5008;50.656;7.188;2022-11-20T10:46:25;7.10;99.90
9939;DHT22;5008;50.656;7.188;2022-11-20T10:48:54;7.20;99.90
9939;DHT22;5008;50.656;7.188;2022-11-20T10:51:31;7.10;99.90
9939;DHT22;5008;50.656;7.188;2022-11-20T10:54:12;7.20;99.90
9939;DHT22;5008;50.656;7.188;2022-11-20T10:56:51;7.40;99.90
9939;DHT22;5008;50.656;7.188;2022-11-20T10:59:47;7.40;99.90
9939;DHT22;5008;50.656;7.188;2022-11-20T11:02:19;7.50;99.90
9939;DHT22;5008;50.656;7.188;2022-11-20T11:04:47;7.50;99.90
9939;DHT22;5008;50.656;7.188;2022-11-20T11:07:19;7.60;99.90
9939;DHT22;5008;50.656;7.188;2022-11-20T11:09:49;7.60;99.90
9939;DHT22;5008;50.656;7.188;2022-11-20T11:12:18;7.60;99.90
9939;DHT22;5008;50.656;7.188;2022-11-20T11:14:49;7.60;99.90
9939;DHT22;5008;50.656;7.188;2022-11-20T11:17:27;7.60;99.90
9939;DHT22;5008;50.656;7.188;2022-11-20T11:20:05;7.60;99.90
9939;DHT22;5008;50.656;7.188;2022-11-20T11:22:42;7.70;99.90
9939;DHT22;5008;50.656;7.188;2022-11-20T11:25:24;7.70;99.90
9939;DHT22;5008;50.656;7.188;2022-11-20T11:27:53;7.90;99.90
9939;DHT22;5008;50.656;7.188;2022-11-20T11:30:23;7.90;99.90
9939;DHT22;5008;50.656;7.188;2022-11-20T11:33:02;8.00;99.90
9939;DHT22;5008;50.656;7.188;2022-11-20T11:35:29;8.10;99.90
9939;DHT22;5008;50.656;7.188;2022-11-20T11:38:10;8.30;99.90
9939;DHT22;5008;50.656;7.188;2022-11-20T11:40:43;8.30;99.90
9939;DHT22;5008;50.656;7.188;2022-11-20T11:43:19;8.20;99.90
9939;DHT22;5008;50.656;7.188;2022-11-20T11:46:14;8.20;99.90
9939;DHT22;5008;50.656;7.188;2022-11-20T11:48:55;8.20;99.90
9939;DHT22;5008;50.656;7.188;2022-11-20T11:51:24;8.20;99.90
9939;DHT22;5008;50.656;7.188;2022-11-20T11:53:57;8.10;99.90
9939;DHT22;5008;50.656;7.188;2022-11-20T11:56:36;8.10;99.90
9939;DHT22;5008;50.656;7.188;2022-11-20T11:59:06;8.00;99.90
9939;DHT22;5008;50.656;7.188;2022-11-20T12:01:44;8.10;99.90
9939;DHT22;5008;50.656;7.188;2022-11-20T12:04:18;8.00;99.90
9939;DHT22;5008;50.656;7.188;2022-11-20T12:06:58;8.10;99.90
9939;DHT22;5008;50.656;7.188;2022-11-20T12:09:38;8.20;99.90
9939;DHT22;5008;50.656;7.188;2022-11-20T12:12:11;8.40;99.90
9939;DHT22;5008;50.656;7.188;2022-11-20T12:14:42;8.60;99.90
9939;DHT22;5008;50.656;7.188;2022-11-20T12:17:13;8.60;99.90
9939;DHT22;5008;50.656;7.188;2022-11-20T12:19:41;8.80;99.90
9939;DHT22;5008;50.656;7.188;2022-11-20T12:22:17;8.80;99.90
9939;DHT22;5008;50.656;7.188;2022-11-20T12:25:03;8.80;99.90
9939;DHT22;5008;50.656;7.188;2022-11-20T12:27:50;8.60;99.90
9939;DHT22;5008;50.656;7.188;2022-11-20T12:30:22;8.60;99.90
9939;DHT22;5008;50.656;7.188;2022-11-20T12:33:04;8.90;99.90
9939;DHT22;5008;50.656;7.188;2022-11-20T12:35:44;8.90;99.90
9939;DHT22;5008;50.656;7.188;2022-11-20T12:41:31;9.00;99.90
9939;DHT22;5008;50.656;7.188;2022-11-20T12:44:32;8.90;99.90
9939;DHT22;5008;50.656;7.188;2022-11-20T12:47:26;9.10;99.90
9939;DHT22;5008;50.656;7.188;2022-11-20T12:50:04;9.00;99.90
9939;DHT22;5008;50.656;7.188;2022-11-20T12:52:38;9.20;99.90
9939;DHT22;5008;50.656;7.188;2022-11-20T12:55:24;9.40;99.90
9939;DHT22;5008;50.656;7.188;2022-11-20T12:57:57;9.20;99.90
9939;DHT22;5008;50.656;7.188;2022-11-20T13:00:25;9.10;99.90
9939;DHT22;5008;50.656;7.188;2022-11-20T13:03:28;9.00;99.90
9939;DHT22;5008;50.656;7.188;2022-11-20T13:06:10;8.90;99.90
9939;DHT22;5008;50.656;7.188;2022-11-20T13:08:48;8.90;99.90
9939;DHT22;5008;50.656;7.188;2022-11-20T13:11:20;8.80;99.90
9939;DHT22;5008;50.656;7.188;2022-11-20T13:14:04;8.70;99.90
9939;DHT22;5008;50.656;7.188;2022-11-20T13:16:37;8.90;99.90
9939;DHT22;5008;50.656;7.188;2022-11-20T13:19:07;9.00;99.90
9939;DHT22;5008;50.656;7.188;2022-11-20T13:21:37;9.10;99.90
9939;DHT22;5008;50.656;7.188;2022-11-20T13:24:31;9.20;99.90
9939;DHT22;5008;50.656;7.188;2022-11-20T13:27:20;9.10;99.90
9939;DHT22;5008;50.656;7.188;2022-11-20T13:30:10;9.30;99.90
9939;DHT22;5008;50.656;7.188;2022-11-20T13:32:48;9.20;99.90
9939;DHT22;5008;50.656;7.188;2022-11-20T13:35:28;9.10;99.90
9939;DHT22;5008;50.656;7.188;2022-11-20T13:38:04;8.90;99.90
9939;DHT22;5008;50.656;7.188;2022-11-20T13:40:31;8.80;99.90
9939;DHT22;5008;50.656;7.188;2022-11-20T13:43:08;8.80;99.90
9939;DHT22;5008;50.656;7.188;2022-11-20T13:45:38;8.70;99.90
9939;DHT22;5008;50.656;7.188;2022-11-20T13:48:19;8.80;99.90
9939;DHT22;5008;50.656;7.188;2022-11-20T13:50:57;8.80;99.90
9939;DHT22;5008;50.656;7.188;2022-11-20T13:53:37;8.60;99.90
9939;DHT22;5008;50.656;7.188;2022-11-20T13:56:16;8.70;99.90
9939;DHT22;5008;50.656;7.188;2022-11-20T13:58:56;8.80;99.90
9939;DHT22;5008;50.656;7.188;2022-11-20T14:01:29;8.80;99.90
9939;DHT22;5008;50.656;7.188;2022-11-20T14:03:58;8.70;99.90
9939;DHT22;5008;50.656;7.188;2022-11-20T14:06:27;8.60;99.90
9939;DHT22;5008;50.656;7.188;2022-11-20T14:08:55;8.50;99.90
9939;DHT22;5008;50.656;7.188;2022-11-20T14:11:24;8.50;99.90
9939;DHT22;5008;50.656;7.188;2022-11-20T14:13:57;8.40;99.90
9939;DHT22;5008;50.656;7.188;2022-11-20T14:16:27;8.50;99.90
9939;DHT22;5008;50.656;7.188;2022-11-20T14:18:56;8.50;99.90
9939;DHT22;5008;50.656;7.188;2022-11-20T14:21:24;8.50;99.90
9939;DHT22;5008;50.656;7.188;2022-11-20T14:24:03;8.60;99.90
9939;DHT22;5008;50.656;7.188;2022-11-20T14:26:30;8.40;99.90
9939;DHT22;5008;50.656;7.188;2022-11-20T14:28:57;8.40;99.90
9939;DHT22;5008;50.656;7.188;2022-11-20T14:31:27;8.30;99.90
9939;DHT22;5008;50.656;7.188;2022-11-20T14:33:54;8.40;99.90
9939;DHT22;5008;50.656;7.188;2022-11-20T14:36:24;8.50;99.90
9939;DHT22;5008;50.656;7.188;2022-11-20T14:38:52;8.80;99.90
9939;DHT22;5008;50.656;7.188;2022-11-20T14:41:21;8.80;99.90
9939;DHT22;5008;50.656;7.188;2022-11-20T14:43:53;8.80;99.90
9939;DHT22;5008;50.656;7.188;2022-11-20T14:46:20;8.70;99.90
9939;DHT22;5008;50.656;7.188;2022-11-20T14:48:50;8.60;99.90
9939;DHT22;5008;50.656;7.188;2022-11-20T14:51:31;8.60;99.90
9939;DHT22;5008;50.656;7.188;2022-11-20T14:54:12;8.40;99.90
9939;DHT22;5008;50.656;7.188;2022-11-20T14:56:39;8.30;99.90
9939;DHT22;5008;50.656;7.188;2022-11-20T14:59:06;8.40;99.90
9939;DHT22;5008;50.656;7.188;2022-11-20T15:01:34;8.40;99.90
9939;DHT22;5008;50.656;7.188;2022-11-20T15:04:05;8.30;99.90
9939;DHT22;5008;50.656;7.188;2022-11-20T15:06:33;8.20;99.90
9939;DHT22;5008;50.656;7.188;2022-11-20T15:08:59;8.10;99.90
9939;DHT22;5008;50.656;7.188;2022-11-20T15:11:30;8.10;99.90
9939;DHT22;5008;50.656;7.188;2022-11-20T15:13:59;8.10;99.90
9939;DHT22;5008;50.656;7.188;2022-11-20T15:16:28;8.00;99.90
9939;DHT22;5008;50.656;7.188;2022-11-20T15:18:55;8.00;99.90
9939;DHT22;5008;50.656;7.188;2022-11-20T15:21:23;8.20;99.90
9939;DHT22;5008;50.656;7.188;2022-11-20T15:23:50;8.20;99.90
9939;DHT22;5008;50.656;7.188;2022-11-20T15:26:22;8.20;99.90
9939;DHT22;5008;50.656;7.188;2022-11-20T15:28:50;8.20;99.90
9939;DHT22;5008;50.656;7.188;2022-11-20T15:31:18;8.20;99.90
9939;DHT22;5008;50.656;7.188;2022-11-20T15:33:46;8.20;99.90
9939;DHT22;5008;50.656;7.188;2022-11-20T15:36:12;8.30;99.90
9939;DHT22;5008;50.656;7.188;2022-11-20T15:38:44;8.30;99.90
9939;DHT22;5008;50.656;7.188;2022-11-20T15:41:11;8.40;99.90
9939;DHT22;5008;50.656;7.188;2022-11-20T15:43:38;8.40;99.90
9939;DHT22;5008;50.656;7.188;2022-11-20T15:46:08;8.20;99.90
9939;DHT22;5008;50.656;7.188;2022-11-20T15:48:38;8.40;99.90
9939;DHT22;5008;50.656;7.188;2022-11-20T15:51:14;8.50;99.90
9939;DHT22;5008;50.656;7.188;2022-11-20T15:53:45;8.60;99.90
9939;DHT22;5008;50.656;7.188;2022-11-20T15:56:13;8.50;99.90
9939;DHT22;5008;50.656;7.188;2022-11-20T15:58:40;8.50;99.90
9939;DHT22;5008;50.656;7.188;2022-11-20T16:01:10;8.40;99.90
9939;DHT22;5008;50.656;7.188;2022-11-20T16:03:46;8.20;99.90
9939;DHT22;5008;50.656;7.188;2022-11-20T16:06:13;8.30;99.90
9939;DHT22;5008;50.656;7.188;2022-11-20T16:08:41;8.20;99.90
9939;DHT22;5008;50.656;7.188;2022-11-20T16:11:12;8.10;99.90
9939;DHT22;5008;50.656;7.188;2022-11-20T16:13:39;8.00;99.90
9939;DHT22;5008;50.656;7.188;2022-11-20T16:16:27;8.00;99.90
9939;DHT22;5008;50.656;7.188;2022-11-20T16:18:55;8.00;99.90
9939;DHT22;5008;50.656;7.188;2022-11-20T16:21:22;8.00;99.90
9939;DHT22;5008;50.656;7.188;2022-11-20T16:23:53;8.00;99.90
9939;DHT22;5008;50.656;7.188;2022-11-20T16:26:21;8.00;99.90
9939;DHT22;5008;50.656;7.188;2022-11-20T16:28:48;7.90;99.90
9939;DHT22;5008;50.656;7.188;2022-11-20T16:31:16;7.80;99.90
9939;DHT22;5008;50.656;7.188;2022-11-20T16:33:48;7.80;99.90
9939;DHT22;5008;50.656;7.188;2022-11-20T16:36:15;7.70;99.90
9939;DHT22;5008;50.656;7.188;2022-11-20T16:38:42;7.80;99.90
9939;DHT22;5008;50.656;7.188;2022-11-20T16:41:09;7.80;99.90
9939;DHT22;5008;50.656;7.188;2022-11-20T16:43:44;7.70;99.90
9939;DHT22;5008;50.656;7.188;2022-11-20T16:46:12;7.70;99.90
9939;DHT22;5008;50.656;7.188;2022-11-20T16:48:39;7.70;99.90
9939;DHT22;5008;50.656;7.188;2022-11-20T16:51:08;7.80;99.90
9939;DHT22;5008;50.656;7.188;2022-11-20T16:53:35;7.80;99.90
9939;DHT22;5008;50.656;7.188;2022-11-20T16:56:08;7.90;99.90
9939;DHT22;5008;50.656;7.188;2022-11-20T16:58:35;7.90;99.90
9939;DHT22;5008;50.656;7.188;2022-11-20T17:01:06;7.80;99.90
9939;DHT22;5008;50.656;7.188;2022-11-20T17:03:35;7.90;99.90
9939;DHT22;5008;50.656;7.188;2022-11-20T17:06:10;7.90;99.90
9939;DHT22;5008;50.656;7.188;2022-11-20T17:08:37;8.00;99.90
9939;DHT22;5008;50.656;7.188;2022-11-20T17:11:05;8.00;99.90
9939;DHT22;5008;50.656;7.188;2022-11-20T17:13:31;8.00;99.90
9939;DHT22;5008;50.656;7.188;2022-11-20T17:16:01;7.90;99.90
9939;DHT22;5008;50.656;7.188;2022-11-20T17:18:33;7.80;99.90
9939;DHT22;5008;50.656;7.188;2022-11-20T17:21:00;7.80;99.90
9939;DHT22;5008;50.656;7.188;2022-11-20T17:23:29;7.90;99.90
9939;DHT22;5008;50.656;7.188;2022-11-20T17:26:04;7.90;99.90
9939;DHT22;5008;50.656;7.188;2022-11-20T17:28:31;7.90;99.90
9939;DHT22;5008;50.656;7.188;2022-11-20T17:31:00;7.90;99.90
9939;DHT22;5008;50.656;7.188;2022-11-20T17:33:28;7.90;99.90
9939;DHT22;5008;50.656;7.188;2022-11-20T17:35:56;7.90;99.90
9939;DHT22;5008;50.656;7.188;2022-11-20T17:38:23;8.00;99.90
9939;DHT22;5008;50.656;7.188;2022-11-20T17:40:50;7.90;99.90
9939;DHT22;5008;50.656;7.188;2022-11-20T17:43:16;7.90;99.90
9939;DHT22;5008;50.656;7.188;2022-11-20T17:45:43;7.90;99.90
9939;DHT22;5008;50.656;7.188;2022-11-20T17:48:10;7.90;99.90
9939;DHT22;5008;50.656;7.188;2022-11-20T17:50:37;7.90;99.90
9939;DHT22;5008;50.656;7.188;2022-11-20T17:53:05;7.80;99.90
9939;DHT22;5008;50.656;7.188;2022-11-20T17:55:32;7.80;99.90
9939;DHT22;5008;50.656;7.188;2022-11-20T17:58:13;7.70;99.90
9939;DHT22;5008;50.656;7.188;2022-11-20T18:00:45;7.80;99.90
9939;DHT22;5008;50.656;7.188;2022-11-20T18:03:12;7.70;99.90
9939;DHT22;5008;50.656;7.188;2022-11-20T18:05:39;7.70;99.90
9939;DHT22;5008;50.656;7.188;2022-11-20T18:08:07;7.80;99.90
9939;DHT22;5008;50.656;7.188;2022-11-20T18:10:34;7.80;99.90
9939;DHT22;5008;50.656;7.188;2022-11-20T18:13:00;7.80;99.90
9939;DHT22;5008;50.656;7.188;2022-11-20T18:15:27;7.70;99.90
9939;DHT22;5008;50.656;7.188;2022-11-20T18:17:54;7.60;99.90
9939;DHT22;5008;50.656;7.188;2022-11-20T18:20:21;7.70;99.90
9939;DHT22;5008;50.656;7.188;2022-11-20T18:22:48;7.70;99.90
9939;DHT22;5008;50.656;7.188;2022-11-20T18:25:16;7.80;99.90
9939;DHT22;5008;50.656;7.188;2022-11-20T18:27:43;7.70;99.90
9939;DHT22;5008;50.656;7.188;2022-11-20T18:30:11;7.70;99.90
9939;DHT22;5008;50.656;7.188;2022-11-20T18:32:38;7.70;99.90
9939;DHT22;5008;50.656;7.188;2022-11-20T18:35:06;7.70;99.90
9939;DHT22;5008;50.656;7.188;2022-11-20T18:37:51;7.70;99.90
9939;DHT22;5008;50.656;7.188;2022-11-20T18:40:19;7.70;99.90
9939;DHT22;5008;50.656;7.188;2022-11-20T18:42:46;7.70;99.90
9939;DHT22;5008;50.656;7.188;2022-11-20T18:45:30;7.70;99.90
9939;DHT22;5008;50.656;7.188;2022-11-20T18:47:57;7.70;99.90
9939;DHT22;5008;50.656;7.188;2022-11-20T18:50:23;7.80;99.90
9939;DHT22;5008;50.656;7.188;2022-11-20T18:52:50;7.80;99.90
9939;DHT22;5008;50.656;7.188;2022-11-20T18:55:18;7.80;99.90
9939;DHT22;5008;50.656;7.188;2022-11-20T18:57:48;7.80;99.90
9939;DHT22;5008;50.656;7.188;2022-11-20T19:00:16;7.80;99.90
9939;DHT22;5008;50.656;7.188;2022-11-20T19:02:43;7.80;99.90
9939;DHT22;5008;50.656;7.188;2022-11-20T19:05:10;7.80;99.90
9939;DHT22;5008;50.656;7.188;2022-11-20T19:07:38;7.70;99.90
9939;DHT22;5008;50.656;7.188;2022-11-20T19:10:05;7.70;99.90
9939;DHT22;5008;50.656;7.188;2022-11-20T19:12:33;7.70;99.90
9939;DHT22;5008;50.656;7.188;2022-11-20T19:15:00;7.60;99.90
9939;DHT22;5008;50.656;7.188;2022-11-20T19:17:27;7.60;99.90
9939;DHT22;5008;50.656;7.188;2022-11-20T19:19:54;7.50;99.90
9939;DHT22;5008;50.656;7.188;2022-11-20T19:22:21;7.50;99.90
9939;DHT22;5008;50.656;7.188;2022-11-20T19:24:50;7.50;99.90
9939;DHT22;5008;50.656;7.188;2022-11-20T19:27:17;7.50;99.90
9939;DHT22;5008;50.656;7.188;2022-11-20T19:29:45;7.50;99.90
9939;DHT22;5008;50.656;7.188;2022-11-20T19:32:11;7.60;99.90
9939;DHT22;5008;50.656;7.188;2022-11-20T19:34:38;7.60;99.90
9939;DHT22;5008;50.656;7.188;2022-11-20T19:37:06;7.60;99.90
9939;DHT22;5008;50.656;7.188;2022-11-20T19:39:35;7.60;99.90
9939;DHT22;5008;50.656;7.188;2022-11-20T19:42:02;7.60;99.90
9939;DHT22;5008;50.656;7.188;2022-11-20T19:44:28;7.60;99.90
9939;DHT22;5008;50.656;7.188;2022-11-20T19:46:58;7.50;99.90
9939;DHT22;5008;50.656;7.188;2022-11-20T19:49:27;7.40;99.90
9939;DHT22;5008;50.656;7.188;2022-11-20T19:51:54;7.30;99.90
9939;DHT22;5008;50.656;7.188;2022-11-20T19:54:21;7.30;99.90
9939;DHT22;5008;50.656;7.188;2022-11-20T19:56:48;7.30;99.90